sensor_id;sensor_type;location;lat;lon;timestamp;pressure;altitude;pressure_sealevel;temperature;humidity
50590;BME280;36547;50.514;30.840;2023-04-01T00:00:30;98832.72;;;7.64;82.32
50590;BME280;36547;50.514;30.840;2023-04-01T00:01:33;98824.03;;;7.62;82.39
50590;BME280;36547;50.514;30.840;2023-04-01T00:02:35;98834.78;;;7.59;82.61
50590;BME280;36547;50.514;30.840;2023-04-01T00:03:37;98829.32;;;7.62;82.66
50590;BME280;36547;50.514;30.840;2023-04-01T00:04:40;98827.44;;;7.64;82.70
50590;BME280;36547;50.514;30.840;2023-04-01T00:05:42;98826.59;;;7.64;82.79
50590;BME280;36547;50.514;30.840;2023-04-01T00:06:44;98829.23;;;7.64;82.83
50590;BME280;36547;50.514;30.840;2023-04-01T00:07:46;98834.39;;;7.65;82.88
50590;BME280;36547;50.514;30.840;2023-04-01T00:08:48;98825.52;;;7.66;82.86
50590;BME280;36547;50.514;30.840;2023-04-01T00:09:51;98826.28;;;7.68;82.85
50590;BME280;36547;50.514;30.840;2023-04-01T00:10:53;98827.05;;;7.70;82.83
50590;BME280;36547;50.514;30.840;2023-04-01T00:11:55;98831.39;;;7.71;82.81
50590;BME280;36547;50.514;30.840;2023-04-01T00:12:58;98831.39;;;7.71;82.82
50590;BME280;36547;50.514;30.840;2023-04-01T00:14:00;98820.05;;;7.69;82.90
50590;BME280;36547;50.514;30.840;2023-04-01T00:15:09;98828.74;;;7.71;82.90
50590;BME280;36547;50.514;30.840;2023-04-01T00:16:14;98831.75;;;7.79;83.02
50590;BME280;36547;50.514;30.840;2023-04-01T00:17:19;98826.38;;;7.67;83.18
50590;BME280;36547;50.514;30.840;2023-04-01T00:18:21;98825.34;;;7.69;83.17
50590;BME280;36547;50.514;30.840;2023-04-01T00:19:24;98830.62;;;7.69;83.19
50590;BME280;36547;50.514;30.840;2023-04-01T00:20:26;98836.67;;;7.71;83.17
50590;BME280;36547;50.514;30.840;2023-04-01T00:21:29;98827.71;;;7.74;83.14
50590;BME280;36547;50.514;30.840;2023-04-01T00:22:31;98825.92;;;7.74;83.15
50590;BME280;36547;50.514;30.840;2023-04-01T00:23:33;98826.77;;;7.75;83.17
50590;BME280;36547;50.514;30.840;2023-04-01T00:24:36;98831.88;;;7.78;83.14
50590;BME280;36547;50.514;30.840;2023-04-01T00:25:38;98828.38;;;7.77;83.12
50590;BME280;36547;50.514;30.840;2023-04-01T00:26:40;98827.44;;;7.78;83.08
50590;BME280;36547;50.514;30.840;2023-04-01T00:27:42;98830.08;;;7.78;83.07
50590;BME280;36547;50.514;30.840;2023-04-01T00:28:45;98840.53;;;7.80;83.08
50590;BME280;36547;50.514;30.840;2023-04-01T00:29:47;98836.31;;;7.77;83.16
50590;BME280;36547;50.514;30.840;2023-04-01T00:30:50;98833.58;;;7.79;83.15
50590;BME280;36547;50.514;30.840;2023-04-01T00:31:53;98833.67;;;7.77;83.17
50590;BME280;36547;50.514;30.840;2023-04-01T00:32:56;98833.45;;;7.80;83.17
50590;BME280;36547;50.514;30.840;2023-04-01T00:33:58;98829.11;;;7.79;83.18
50590;BME280;36547;50.514;30.840;2023-04-01T00:35:01;98827.22;;;7.81;83.19
50590;BME280;36547;50.514;30.840;2023-04-01T00:36:14;98826.19;;;7.84;83.16
50590;BME280;36547;50.514;30.840;2023-04-01T00:37:17;98826.19;;;7.84;83.16
50590;BME280;36547;50.514;30.840;2023-04-01T00:38:20;98834.03;;;7.86;83.14
50590;BME280;36547;50.514;30.840;2023-04-01T00:39:23;98827.80;;;7.87;83.14
50590;BME280;36547;50.514;30.840;2023-04-01T00:40:34;98825.16;;;7.87;83.13
50590;BME280;36547;50.514;30.840;2023-04-01T00:41:37;98825.06;;;7.88;83.14
50590;BME280;36547;50.514;30.840;2023-04-01T00:42:40;98822.33;;;7.90;83.07
50590;BME280;36547;50.514;30.840;2023-04-01T00:43:44;98822.33;;;7.90;83.13
50590;BME280;36547;50.514;30.840;2023-04-01T00:44:54;98824.03;;;7.91;83.18
50590;BME280;36547;50.514;30.840;2023-04-01T00:45:57;98822.23;;;7.91;83.13
50590;BME280;36547;50.514;30.840;2023-04-01T00:47:01;98826.45;;;7.94;83.10
50590;BME280;36547;50.514;30.840;2023-04-01T00:48:13;98824.57;;;7.96;83.05
50590;BME280;36547;50.514;30.840;2023-04-01T00:49:18;98829.77;;;7.97;83.02
50590;BME280;36547;50.514;30.840;2023-04-01T00:50:24;98820.98;;;7.97;82.97
50590;BME280;36547;50.514;30.840;2023-04-01T00:51:28;98815.51;;;8.00;82.95
50590;BME280;36547;50.514;30.840;2023-04-01T00:52:32;98819.09;;;7.99;82.94
50590;BME280;36547;50.514;30.840;2023-04-01T00:53:39;98827.03;;;7.99;82.93
50590;BME280;36547;50.514;30.840;2023-04-01T00:54:43;98821.92;;;7.96;82.98
50590;BME280;36547;50.514;30.840;2023-04-01T00:55:56;98822.78;;;7.96;83.02
50590;BME280;36547;50.514;30.840;2023-04-01T00:57:06;98822.78;;;7.96;83.04
50590;BME280;36547;50.514;30.840;2023-04-01T00:58:13;98829.77;;;7.97;83.05
50590;BME280;36547;50.514;30.840;2023-04-01T00:59:21;98819.19;;;7.97;83.06
50590;BME280;36547;50.514;30.840;2023-04-01T01:00:24;98823.72;;;7.95;83.05
50590;BME280;36547;50.514;30.840;2023-04-01T01:01:28;98820.98;;;7.97;83.05
50590;BME280;36547;50.514;30.840;2023-04-01T01:02:33;98823.62;;;7.97;83.12
50590;BME280;36547;50.514;30.840;2023-04-01T01:03:37;98821.92;;;7.96;83.12
50590;BME280;36547;50.514;30.840;2023-04-01T01:04:39;98820.22;;;7.95;83.16
50590;BME280;36547;50.514;30.840;2023-04-01T01:06:22;98825.52;;;7.95;83.20
50590;BME280;36547;50.514;30.840;2023-04-01T01:07:44;98822.78;;;7.96;83.21
50590;BME280;36547;50.514;30.840;2023-04-01T01:10:23;98825.33;;;7.98;83.14
50590;BME280;36547;50.514;30.840;2023-04-01T01:11:47;98820.97;;;8.11;83.09
50590;BME280;36547;50.514;30.840;2023-04-01T01:14:55;98823.44;;;8.00;83.10
50590;BME280;36547;50.514;30.840;2023-04-01T01:16:06;98821.73;;;7.99;83.04
50590;BME280;36547;50.514;30.840;2023-04-01T01:21:51;98828.64;;;8.01;82.90
50590;BME280;36547;50.514;30.840;2023-04-01T01:30:42;98842.91;;;7.99;82.87
50590;BME280;36547;50.514;30.840;2023-04-01T01:35:38;98835.73;;;8.01;82.90
50590;BME280;36547;50.514;30.840;2023-04-01T01:36:48;98833.08;;;8.01;82.95
50590;BME280;36547;50.514;30.840;2023-04-01T01:37:54;98834.69;;;8.03;82.88
50590;BME280;36547;50.514;30.840;2023-04-01T01:38:57;98835.54;;;8.04;82.86
50590;BME280;36547;50.514;30.840;2023-04-01T01:40:06;98832.98;;;8.02;82.87
50590;BME280;36547;50.514;30.840;2023-04-01T01:41:12;98837.42;;;8.02;82.88
50590;BME280;36547;50.514;30.840;2023-04-01T01:42:17;98841.69;;;8.04;82.82
50590;BME280;36547;50.514;30.840;2023-04-01T01:43:41;98836.39;;;8.04;82.76
50590;BME280;36547;50.514;30.840;2023-04-01T01:44:47;98840.65;;;8.07;82.69
50590;BME280;36547;50.514;30.840;2023-04-01T01:45:54;98845.72;;;8.10;82.65
50590;BME280;36547;50.514;30.840;2023-04-01T01:46:57;98844.02;;;8.09;82.52
50590;BME280;36547;50.514;30.840;2023-04-01T01:48:02;98838.73;;;8.09;82.53
50590;BME280;36547;50.514;30.840;2023-04-01T01:49:07;98846.66;;;8.09;82.50
50590;BME280;36547;50.514;30.840;2023-04-01T01:50:13;98850.25;;;8.08;82.51
50590;BME280;36547;50.514;30.840;2023-04-01T01:51:18;98853.11;;;8.05;82.53
50590;BME280;36547;50.514;30.840;2023-04-01T01:52:22;98856.61;;;8.05;82.53
50590;BME280;36547;50.514;30.840;2023-04-01T01:53:25;98853.97;;;8.05;82.54
50590;BME280;36547;50.514;30.840;2023-04-01T01:54:27;98848.77;;;8.04;82.56
50590;BME280;36547;50.514;30.840;2023-04-01T01:56:44;98854.42;;;8.12;82.71
50590;BME280;36547;50.514;30.840;2023-04-01T01:57:48;98844.03;;;7.95;82.88
50590;BME280;36547;50.514;30.840;2023-04-01T01:58:55;98856.13;;;7.99;82.87
50590;BME280;36547;50.514;30.840;2023-04-01T02:00:06;98853.48;;;7.99;82.87
50590;BME280;36547;50.514;30.840;2023-04-01T02:01:18;98852.81;;;8.09;82.93
50590;BME280;36547;50.514;30.840;2023-04-01T02:02:22;98844.97;;;7.94;83.05
50590;BME280;36547;50.514;30.840;2023-04-01T02:03:28;98857.25;;;7.95;83.09
50590;BME280;36547;50.514;30.840;2023-04-01T02:04:31;98853.67;;;7.96;83.12
50590;BME280;36547;50.514;30.840;2023-04-01T02:05:35;98850.08;;;7.97;83.06
50590;BME280;36547;50.514;30.840;2023-04-01T02:06:53;98852.72;;;7.97;83.11
50590;BME280;36547;50.514;30.840;2023-04-01T02:08:10;98855.37;;;7.97;83.11
50590;BME280;36547;50.514;30.840;2023-04-01T02:09:12;98853.48;;;7.99;83.04
50590;BME280;36547;50.514;30.840;2023-04-01T02:10:15;98848.19;;;7.99;83.04
50590;BME280;36547;50.514;30.840;2023-04-01T02:11:22;98850.66;;;8.02;83.05
50590;BME280;36547;50.514;30.840;2023-04-01T02:12:24;98855.85;;;8.03;82.99
50590;BME280;36547;50.514;30.840;2023-04-01T02:15:47;98853.66;;;8.10;82.84
50590;BME280;36547;50.514;30.840;2023-04-01T02:17:04;98858.00;;;8.11;82.74
50590;BME280;36547;50.514;30.840;2023-04-01T02:18:06;98849.31;;;8.09;82.73
50590;BME280;36547;50.514;30.840;2023-04-01T02:19:10;98843.08;;;8.10;82.72
50590;BME280;36547;50.514;30.840;2023-04-01T02:20:17;98844.78;;;8.11;82.72
50590;BME280;36547;50.514;30.840;2023-04-01T02:21:22;98851.68;;;8.13;82.68
50590;BME280;36547;50.514;30.840;2023-04-01T02:22:33;98860.47;;;8.14;82.67
50590;BME280;36547;50.514;30.840;2023-04-01T02:23:38;98852.53;;;8.14;82.62
50590;BME280;36547;50.514;30.840;2023-04-01T02:24:42;98855.08;;;8.15;82.64
50590;BME280;36547;50.514;30.840;2023-04-01T02:25:47;98858.58;;;8.16;82.60
50590;BME280;36547;50.514;30.840;2023-04-01T02:26:51;98854.14;;;8.16;82.54
50590;BME280;36547;50.514;30.840;2023-04-01T02:27:55;98855.75;;;8.19;82.52
50590;BME280;36547;50.514;30.840;2023-04-01T02:29:01;98857.45;;;8.20;82.46
50590;BME280;36547;50.514;30.840;2023-04-01T02:30:05;98862.74;;;8.20;82.43
50590;BME280;36547;50.514;30.840;2023-04-01T02:31:10;98854.05;;;8.18;82.43
50590;BME280;36547;50.514;30.840;2023-04-01T02:32:14;98855.75;;;8.19;82.43
50590;BME280;36547;50.514;30.840;2023-04-01T02:33:17;98858.48;;;8.18;82.50
50590;BME280;36547;50.514;30.840;2023-04-01T02:34:22;98861.04;;;8.19;82.49
50590;BME280;36547;50.514;30.840;2023-04-01T02:35:26;98860.19;;;8.19;82.46
50590;BME280;36547;50.514;30.840;2023-04-01T02:36:28;98854.98;;;8.17;82.51
50590;BME280;36547;50.514;30.840;2023-04-01T02:37:31;98851.49;;;8.16;82.52
50590;BME280;36547;50.514;30.840;2023-04-01T02:38:36;98849.70;;;8.17;82.53
50590;BME280;36547;50.514;30.840;2023-04-01T02:39:38;98849.70;;;8.17;82.53
50590;BME280;36547;50.514;30.840;2023-04-01T02:40:56;98850.64;;;8.16;82.56
50590;BME280;36547;50.514;30.840;2023-04-01T02:41:55;98843.46;;;8.18;82.56
50590;BME280;36547;50.514;30.840;2023-04-01T02:42:57;98846.86;;;8.20;82.53
50590;BME280;36547;50.514;30.840;2023-04-01T02:44:00;98845.92;;;8.21;82.50
50590;BME280;36547;50.514;30.840;2023-04-01T02:45:03;98844.22;;;8.20;82.48
50590;BME280;36547;50.514;30.840;2023-04-01T02:46:18;98850.56;;;8.32;82.47
50590;BME280;36547;50.514;30.840;2023-04-01T02:47:20;98854.05;;;8.18;82.52
50590;BME280;36547;50.514;30.840;2023-04-01T02:48:23;98847.81;;;8.19;82.54
50590;BME280;36547;50.514;30.840;2023-04-01T02:49:28;98848.75;;;8.18;82.53
50590;BME280;36547;50.514;30.840;2023-04-01T02:50:30;98844.31;;;8.19;82.51
50590;BME280;36547;50.514;30.840;2023-04-01T02:51:33;98850.55;;;8.18;82.53
50590;BME280;36547;50.514;30.840;2023-04-01T02:52:36;98846.02;;;8.20;82.52
50590;BME280;36547;50.514;30.840;2023-04-01T02:53:38;98846.86;;;8.20;82.51
50590;BME280;36547;50.514;30.840;2023-04-01T02:54:40;98851.21;;;8.21;82.49
50590;BME280;36547;50.514;30.840;2023-04-01T02:55:42;98844.22;;;8.20;82.49
50590;BME280;36547;50.514;30.840;2023-04-01T02:56:45;98845.16;;;8.19;82.48
50590;BME280;36547;50.514;30.840;2023-04-01T02:57:48;98849.51;;;8.20;82.49
50590;BME280;36547;50.514;30.840;2023-04-01T02:58:50;98846.77;;;8.22;82.45
50590;BME280;36547;50.514;30.840;2023-04-01T02:59:53;98847.63;;;8.22;82.44
50590;BME280;36547;50.514;30.840;2023-04-01T03:00:55;98844.97;;;8.22;82.43
50590;BME280;36547;50.514;30.840;2023-04-01T03:01:58;98842.33;;;8.22;82.39
50590;BME280;36547;50.514;30.840;2023-04-01T03:03:01;98850.05;;;8.25;82.37
50590;BME280;36547;50.514;30.840;2023-04-01T03:04:04;98840.50;;;8.23;82.36
50590;BME280;36547;50.514;30.840;2023-04-01T03:05:07;98837.77;;;8.24;82.34
50590;BME280;36547;50.514;30.840;2023-04-01T03:06:12;98841.35;;;8.23;82.31
50590;BME280;36547;50.514;30.840;2023-04-01T03:07:14;98842.95;;;8.26;82.31
50590;BME280;36547;50.514;30.840;2023-04-01T03:08:17;98840.50;;;8.23;82.28
50590;BME280;36547;50.514;30.840;2023-04-01T03:09:21;98837.03;;;8.22;82.30
50590;BME280;36547;50.514;30.840;2023-04-01T03:10:23;98847.72;;;8.21;82.34
50590;BME280;36547;50.514;30.840;2023-04-01T03:11:25;98833.63;;;8.20;82.37
50590;BME280;36547;50.514;30.840;2023-04-01T03:12:28;98843.46;;;8.18;82.40
50590;BME280;36547;50.514;30.840;2023-04-01T03:13:30;98842.52;;;8.19;82.42
50590;BME280;36547;50.514;30.840;2023-04-01T03:14:32;98847.05;;;8.17;82.47
50590;BME280;36547;50.514;30.840;2023-04-01T03:15:35;98841.76;;;8.17;82.51
50590;BME280;36547;50.514;30.840;2023-04-01T03:16:37;98841.76;;;8.17;82.53
50590;BME280;36547;50.514;30.840;2023-04-01T03:17:41;98838.27;;;8.16;82.51
50590;BME280;36547;50.514;30.840;2023-04-01T03:18:45;98837.22;;;8.19;82.48
50590;BME280;36547;50.514;30.840;2023-04-01T03:19:47;98839.69;;;8.22;82.39
50590;BME280;36547;50.514;30.840;2023-04-01T03:20:50;98837.77;;;8.24;82.36
50590;BME280;36547;50.514;30.840;2023-04-01T03:21:53;98840.41;;;8.24;82.29
50590;BME280;36547;50.514;30.840;2023-04-01T03:22:55;98841.35;;;8.23;82.21
50590;BME280;36547;50.514;30.840;2023-04-01T03:23:57;98835.87;;;8.26;82.22
50590;BME280;36547;50.514;30.840;2023-04-01T03:25:00;98842.02;;;8.27;82.15
50590;BME280;36547;50.514;30.840;2023-04-01T03:26:02;98842.20;;;8.24;82.18
50590;BME280;36547;50.514;30.840;2023-04-01T03:27:04;98837.98;;;8.21;82.21
50590;BME280;36547;50.514;30.840;2023-04-01T03:28:07;98853.86;;;8.21;82.22
50590;BME280;36547;50.514;30.840;2023-04-01T03:29:09;98850.45;;;8.19;82.26
50590;BME280;36547;50.514;30.840;2023-04-01T03:30:12;98851.30;;;8.20;82.27
50590;BME280;36547;50.514;30.840;2023-04-01T03:31:16;98856.59;;;8.20;82.32
50590;BME280;36547;50.514;30.840;2023-04-01T03:32:20;98859.34;;;8.18;82.40
50590;BME280;36547;50.514;30.840;2023-04-01T03:33:23;98854.98;;;8.17;82.40
50590;BME280;36547;50.514;30.840;2023-04-01T03:34:25;98859.52;;;8.15;82.44
50590;BME280;36547;50.514;30.840;2023-04-01T03:35:28;98850.64;;;8.16;82.52
50590;BME280;36547;50.514;30.840;2023-04-01T03:36:30;98849.70;;;8.17;82.50
50590;BME280;36547;50.514;30.840;2023-04-01T03:37:34;98854.05;;;8.18;82.46
50590;BME280;36547;50.514;30.840;2023-04-01T03:38:36;98861.04;;;8.19;82.44
50590;BME280;36547;50.514;30.840;2023-04-01T03:39:39;98853.10;;;8.19;82.42
50590;BME280;36547;50.514;30.840;2023-04-01T03:40:45;98854.05;;;8.18;82.45
50590;BME280;36547;50.514;30.840;2023-04-01T03:41:47;98855.75;;;8.19;82.47
50590;BME280;36547;50.514;30.840;2023-04-01T03:42:50;98860.28;;;8.17;82.48
50590;BME280;36547;50.514;30.840;2023-04-01T03:43:53;98855.94;;;8.16;82.52
50590;BME280;36547;50.514;30.840;2023-04-01T03:44:55;98857.63;;;8.17;82.53
50590;BME280;36547;50.514;30.840;2023-04-01T03:45:58;98850.55;;;8.18;82.50
50590;BME280;36547;50.514;30.840;2023-04-01T03:47:00;98857.82;;;8.14;82.50
50590;BME280;36547;50.514;30.840;2023-04-01T03:48:04;98861.23;;;8.16;82.55
50590;BME280;36547;50.514;30.840;2023-04-01T03:49:08;98864.63;;;8.18;82.54
50590;BME280;36547;50.514;30.840;2023-04-01T03:50:11;98863.78;;;8.18;82.54
50590;BME280;36547;50.514;30.840;2023-04-01T03:51:14;98864.63;;;8.18;82.52
50590;BME280;36547;50.514;30.840;2023-04-01T03:52:16;98867.28;;;8.18;82.51
50590;BME280;36547;50.514;30.840;2023-04-01T03:53:18;98867.28;;;8.18;82.51
50590;BME280;36547;50.514;30.840;2023-04-01T03:54:21;98869.16;;;8.16;82.55
50590;BME280;36547;50.514;30.840;2023-04-01T03:55:24;98868.22;;;8.17;82.55
50590;BME280;36547;50.514;30.840;2023-04-01T03:56:26;98868.22;;;8.17;82.60
50590;BME280;36547;50.514;30.840;2023-04-01T03:57:30;98874.27;;;8.19;82.59
50590;BME280;36547;50.514;30.840;2023-04-01T03:58:34;98873.33;;;8.20;82.55
50590;BME280;36547;50.514;30.840;2023-04-01T03:59:37;98877.55;;;8.23;82.47
50590;BME280;36547;50.514;30.840;2023-04-01T04:00:40;98871.31;;;8.24;82.46
50590;BME280;36547;50.514;30.840;2023-04-01T04:01:46;98875.57;;;8.26;82.41
50590;BME280;36547;50.514;30.840;2023-04-01T04:02:48;98882.66;;;8.26;82.35
50590;BME280;36547;50.514;30.840;2023-04-01T04:03:53;98878.22;;;8.26;82.27
50590;BME280;36547;50.514;30.840;2023-04-01T04:04:57;98873.77;;;8.27;82.24
50590;BME280;36547;50.514;30.840;2023-04-01T04:05:59;98867.44;;;8.29;82.21
50590;BME280;36547;50.514;30.840;2023-04-01T04:07:02;98876.14;;;8.31;82.12
50590;BME280;36547;50.514;30.840;2023-04-01T04:08:06;98871.73;;;8.32;82.10
50590;BME280;36547;50.514;30.840;2023-04-01T04:09:08;98871.80;;;8.30;82.10
50590;BME280;36547;50.514;30.840;2023-04-01T04:10:11;98872.58;;;8.32;82.08
50590;BME280;36547;50.514;30.840;2023-04-01T04:11:13;98874.44;;;8.30;82.05
50590;BME280;36547;50.514;30.840;2023-04-01T04:12:16;98880.58;;;8.31;82.07
50590;BME280;36547;50.514;30.840;2023-04-01T04:13:19;98875.38;;;8.29;82.11
50590;BME280;36547;50.514;30.840;2023-04-01T04:14:23;98885.81;;;8.32;82.08
50590;BME280;36547;50.514;30.840;2023-04-01T04:15:25;98882.32;;;8.32;82.04
50590;BME280;36547;50.514;30.840;2023-04-01T04:16:28;98889.38;;;8.31;82.10
50590;BME280;36547;50.514;30.840;2023-04-01T04:17:33;98886.73;;;8.31;82.09
50590;BME280;36547;50.514;30.840;2023-04-01T04:18:36;98884.08;;;8.31;82.07
50590;BME280;36547;50.514;30.840;2023-04-01T04:19:39;98890.31;;;8.30;82.08
50590;BME280;36547;50.514;30.840;2023-04-01T04:20:45;98888.46;;;8.32;82.12
50590;BME280;36547;50.514;30.840;2023-04-01T04:21:48;98878.73;;;8.33;82.12
50590;BME280;36547;50.514;30.840;2023-04-01T04:22:50;98887.52;;;8.33;82.08
50590;BME280;36547;50.514;30.840;2023-04-01T04:23:52;98883.17;;;8.32;82.08
50590;BME280;36547;50.514;30.840;2023-04-01T04:24:55;98887.61;;;8.32;82.10
50590;BME280;36547;50.514;30.840;2023-04-01T04:27:11;98891.18;;;8.45;82.09
50590;BME280;36547;50.514;30.840;2023-04-01T04:28:15;98890.31;;;8.30;82.05
50590;BME280;36547;50.514;30.840;2023-04-01T04:29:18;98890.31;;;8.30;82.09
50590;BME280;36547;50.514;30.840;2023-04-01T04:30:20;98897.50;;;8.28;82.11
50590;BME280;36547;50.514;30.840;2023-04-01T04:31:24;98901.00;;;8.29;82.10
50590;BME280;36547;50.514;30.840;2023-04-01T04:32:28;98892.91;;;8.32;82.03
50590;BME280;36547;50.514;30.840;2023-04-01T04:33:33;98894.95;;;8.27;81.99
50590;BME280;36547;50.514;30.840;2023-04-01T04:34:36;98899.39;;;8.26;81.99
50590;BME280;36547;50.514;30.840;2023-04-01T04:35:38;98894.09;;;8.26;82.02
50590;BME280;36547;50.514;30.840;2023-04-01T04:36:42;98906.48;;;8.26;82.07
50590;BME280;36547;50.514;30.840;2023-04-01T04:37:45;98897.69;;;8.25;82.11
50590;BME280;36547;50.514;30.840;2023-04-01T04:38:47;98903.73;;;8.27;82.15
50590;BME280;36547;50.514;30.840;2023-04-01T04:39:50;98901.19;;;8.26;82.12
50590;BME280;36547;50.514;30.840;2023-04-01T04:40:53;98901.84;;;8.29;82.12
50590;BME280;36547;50.514;30.840;2023-04-01T04:41:55;98905.34;;;8.30;82.09
50590;BME280;36547;50.514;30.840;2023-04-01T04:42:57;98906.05;;;8.33;82.06
50590;BME280;36547;50.514;30.840;2023-04-01T04:44:00;98894.61;;;8.33;82.00
50590;BME280;36547;50.514;30.840;2023-04-01T04:45:03;98900.75;;;8.33;82.04
50590;BME280;36547;50.514;30.840;2023-04-01T04:46:09;98896.31;;;8.34;82.05
50590;BME280;36547;50.514;30.840;2023-04-01T04:47:13;98894.42;;;8.36;82.08
50590;BME280;36547;50.514;30.840;2023-04-01T04:48:16;98900.56;;;8.36;82.05
50590;BME280;36547;50.514;30.840;2023-04-01T04:49:19;98888.15;;;8.37;82.01
50590;BME280;36547;50.514;30.840;2023-04-01T04:50:23;98890.61;;;8.40;81.98
50590;BME280;36547;50.514;30.840;2023-04-01T04:51:25;98888.05;;;8.38;81.98
50590;BME280;36547;50.514;30.840;2023-04-01T04:52:28;98889.98;;;8.36;81.97
50590;BME280;36547;50.514;30.840;2023-04-01T04:53:30;98889.98;;;8.36;82.03
50590;BME280;36547;50.514;30.840;2023-04-01T04:54:32;98893.57;;;8.35;82.03
50590;BME280;36547;50.514;30.840;2023-04-01T04:55:36;98895.15;;;8.38;82.04
50590;BME280;36547;50.514;30.840;2023-04-01T04:56:56;98890.61;;;8.40;82.04
50590;BME280;36547;50.514;30.840;2023-04-01T04:58:00;98895.72;;;8.43;82.02
50590;BME280;36547;50.514;30.840;2023-04-01T04:59:03;98891.18;;;8.45;81.96
50590;BME280;36547;50.514;30.840;2023-04-01T05:00:09;98892.22;;;8.42;82.00
50590;BME280;36547;50.514;30.840;2023-04-01T05:01:26;98902.72;;;8.44;81.90
50590;BME280;36547;50.514;30.840;2023-04-01T05:02:28;98891.27;;;8.43;81.78
50590;BME280;36547;50.514;30.840;2023-04-01T05:03:31;98892.98;;;8.44;81.71
50590;BME280;36547;50.514;30.840;2023-04-01T05:04:36;98900.16;;;8.42;81.65
50590;BME280;36547;50.514;30.840;2023-04-01T05:05:39;98891.27;;;8.43;81.54
50590;BME280;36547;50.514;30.840;2023-04-01T05:06:43;98891.46;;;8.40;81.49
50590;BME280;36547;50.514;30.840;2023-04-01T05:07:46;98890.70;;;8.38;81.50
50590;BME280;36547;50.514;30.840;2023-04-01T05:08:48;98881.82;;;8.39;81.51
50590;BME280;36547;50.514;30.840;2023-04-01T05:09:50;98889.77;;;8.39;81.60
50590;BME280;36547;50.514;30.840;2023-04-01T05:10:54;98884.47;;;8.39;81.60
50590;BME280;36547;50.514;30.840;2023-04-01T05:11:56;98887.02;;;8.41;81.61
50590;BME280;36547;50.514;30.840;2023-04-01T05:12:59;98887.87;;;8.41;81.59
50590;BME280;36547;50.514;30.840;2023-04-01T05:14:02;98891.46;;;8.40;81.60
50590;BME280;36547;50.514;30.840;2023-04-01T05:15:07;98889.57;;;8.42;81.55
50590;BME280;36547;50.514;30.840;2023-04-01T05:16:13;98885.31;;;8.40;81.55
50590;BME280;36547;50.514;30.840;2023-04-01T05:17:21;98886.33;;;8.51;81.65
50590;BME280;36547;50.514;30.840;2023-04-01T05:18:24;98893.45;;;8.37;81.76
50590;BME280;36547;50.514;30.840;2023-04-01T05:19:26;98884.69;;;8.36;81.72
50590;BME280;36547;50.514;30.840;2023-04-01T05:20:28;98884.88;;;8.33;81.76
50590;BME280;36547;50.514;30.840;2023-04-01T05:21:32;98888.46;;;8.32;81.82
50590;BME280;36547;50.514;30.840;2023-04-01T05:22:34;98890.16;;;8.33;81.85
50590;BME280;36547;50.514;30.840;2023-04-01T05:23:37;98891.87;;;8.34;82.04
50590;BME280;36547;50.514;30.840;2023-04-01T05:24:39;98885.63;;;8.35;82.05
50590;BME280;36547;50.514;30.840;2023-04-01T05:25:42;98889.98;;;8.36;82.04
50590;BME280;36547;50.514;30.840;2023-04-01T05:26:45;98889.77;;;8.39;82.04
50590;BME280;36547;50.514;30.840;2023-04-01T05:27:49;98886.17;;;8.40;81.97
50590;BME280;36547;50.514;30.840;2023-04-01T05:28:51;98885.12;;;8.43;81.94
50590;BME280;36547;50.514;30.840;2023-04-01T05:29:55;98885.22;;;8.41;81.88
50590;BME280;36547;50.514;30.840;2023-04-01T05:31:02;98884.38;;;8.41;81.98
50590;BME280;36547;50.514;30.840;2023-04-01T05:32:12;98886.17;;;8.40;81.99
50590;BME280;36547;50.514;30.840;2023-04-01T05:33:14;98889.57;;;8.42;81.97
50590;BME280;36547;50.514;30.840;2023-04-01T05:34:17;98892.31;;;8.41;81.89
50590;BME280;36547;50.514;30.840;2023-04-01T05:35:20;98898.65;;;8.38;81.82
50590;BME280;36547;50.514;30.840;2023-04-01T05:36:23;98896.94;;;8.37;81.78
50590;BME280;36547;50.514;30.840;2023-04-01T05:37:25;98896.00;;;8.38;81.81
50590;BME280;36547;50.514;30.840;2023-04-01T05:38:28;98892.41;;;8.39;81.84
50590;BME280;36547;50.514;30.840;2023-04-01T05:39:31;98894.87;;;8.42;81.86
50590;BME280;36547;50.514;30.840;2023-04-01T05:40:34;98892.03;;;8.45;81.87
50590;BME280;36547;50.514;30.840;2023-04-01T05:41:37;98888.63;;;8.43;81.74
50590;BME280;36547;50.514;30.840;2023-04-01T05:42:40;98892.98;;;8.44;81.74
50590;BME280;36547;50.514;30.840;2023-04-01T05:43:43;98893.73;;;8.46;81.76
50590;BME280;36547;50.514;30.840;2023-04-01T05:44:49;98900.64;;;8.49;81.83
50590;BME280;36547;50.514;30.840;2023-04-01T05:45:58;98889.45;;;8.58;81.73
50590;BME280;36547;50.514;30.840;2023-04-01T05:47:05;98899.88;;;8.47;81.70
50590;BME280;36547;50.514;30.840;2023-04-01T05:48:07;98892.79;;;8.47;81.60
50590;BME280;36547;50.514;30.840;2023-04-01T05:49:12;98884.84;;;8.47;81.54
50590;BME280;36547;50.514;30.840;2023-04-01T05:50:15;98890.90;;;8.49;81.54
50590;BME280;36547;50.514;30.840;2023-04-01T05:51:24;98890.11;;;8.62;81.67
50590;BME280;36547;50.514;30.840;2023-04-01T05:52:26;98888.98;;;8.51;81.73
50590;BME280;36547;50.514;30.840;2023-04-01T05:53:28;98886.14;;;8.55;81.75
50590;BME280;36547;50.514;30.840;2023-04-01T05:54:31;98892.00;;;8.60;81.72
50590;BME280;36547;50.514;30.840;2023-04-01T05:55:35;98889.27;;;8.61;81.54
50590;BME280;36547;50.514;30.840;2023-04-01T05:56:38;98897.11;;;8.63;81.30
50590;BME280;36547;50.514;30.840;2023-04-01T05:57:40;98894.37;;;8.64;81.18
50590;BME280;36547;50.514;30.840;2023-04-01T05:58:42;98895.22;;;8.65;81.06
50590;BME280;36547;50.514;30.840;2023-04-01T05:59:45;98896.89;;;8.66;81.00
50590;BME280;36547;50.514;30.840;2023-04-01T06:00:48;98895.00;;;8.68;81.00
50590;BME280;36547;50.514;30.840;2023-04-01T06:01:52;98895.75;;;8.70;80.99
50590;BME280;36547;50.514;30.840;2023-04-01T06:02:55;98894.14;;;8.67;80.95
50590;BME280;36547;50.514;30.840;2023-04-01T06:04:05;98894.23;;;8.80;81.06
50590;BME280;36547;50.514;30.840;2023-04-01T06:05:22;98898.21;;;8.73;81.27